sensor_id;sensor_type;location;lat;lon;timestamp;P1;durP1;ratioP1;P2;durP2;ratioP2
3141;SDS011;1581;51.568;6.998;2023-10-08T00:00:44;14.30;;;3.03;;
3141;SDS011;1581;51.568;6.998;2023-10-08T00:03:15;6.47;;;3.15;;
3141;SDS011;1581;51.568;6.998;2023-10-08T00:05:44;8.45;;;3.55;;
3141;SDS011;1581;51.568;6.998;2023-10-08T00:08:13;9.40;;;3.33;;
3141;SDS011;1581;51.568;6.998;2023-10-08T00:10:42;6.68;;;3.58;;
3141;SDS011;1581;51.568;6.998;2023-10-08T00:13:10;5.93;;;3.53;;
3141;SDS011;1581;51.568;6.998;2023-10-08T00:15:42;10.63;;;4.03;;
3141;SDS011;1581;51.568;6.998;2023-10-08T00:18:17;5.75;;;3.65;;
3141;SDS011;1581;51.568;6.998;2023-10-08T00:20:45;5.82;;;3.80;;
3141;SDS011;1581;51.568;6.998;2023-10-08T00:23:21;7.43;;;3.78;;
3141;SDS011;1581;51.568;6.998;2023-10-08T00:25:51;4.30;;;2.90;;
3141;SDS011;1581;51.568;6.998;2023-10-08T00:28:19;5.75;;;3.53;;
3141;SDS011;1581;51.568;6.998;2023-10-08T00:30:47;9.10;;;4.15;;
3141;SDS011;1581;51.568;6.998;2023-10-08T00:33:15;7.25;;;3.92;;
3141;SDS011;1581;51.568;6.998;2023-10-08T00:35:42;5.65;;;3.45;;
3141;SDS011;1581;51.568;6.998;2023-10-08T00:38:10;9.77;;;4.50;;
3141;SDS011;1581;51.568;6.998;2023-10-08T00:40:46;8.95;;;4.32;;
3141;SDS011;1581;51.568;6.998;2023-10-08T00:43:29;9.02;;;3.40;;
3141;SDS011;1581;51.568;6.998;2023-10-08T00:45:59;8.30;;;3.60;;
3141;SDS011;1581;51.568;6.998;2023-10-08T00:48:27;9.02;;;3.40;;
3141;SDS011;1581;51.568;6.998;2023-10-08T00:51:01;7.00;;;3.72;;
3141;SDS011;1581;51.568;6.998;2023-10-08T00:53:40;9.85;;;3.60;;
3141;SDS011;1581;51.568;6.998;2023-10-08T00:56:10;11.98;;;4.47;;
3141;SDS011;1581;51.568;6.998;2023-10-08T00:58:40;14.18;;;3.70;;
3141;SDS011;1581;51.568;6.998;2023-10-08T01:01:11;12.88;;;3.67;;
3141;SDS011;1581;51.568;6.998;2023-10-08T01:03:41;7.63;;;4.03;;
3141;SDS011;1581;51.568;6.998;2023-10-08T01:06:10;9.55;;;4.28;;
3141;SDS011;1581;51.568;6.998;2023-10-08T01:08:43;16.02;;;3.78;;
3141;SDS011;1581;51.568;6.998;2023-10-08T01:11:19;7.30;;;3.28;;
3141;SDS011;1581;51.568;6.998;2023-10-08T01:13:57;12.75;;;4.03;;
3141;SDS011;1581;51.568;6.998;2023-10-08T01:16:25;11.10;;;4.47;;
3141;SDS011;1581;51.568;6.998;2023-10-08T01:18:53;7.47;;;3.83;;
3141;SDS011;1581;51.568;6.998;2023-10-08T01:21:21;10.05;;;3.72;;
3141;SDS011;1581;51.568;6.998;2023-10-08T01:24:07;7.95;;;3.58;;
3141;SDS011;1581;51.568;6.998;2023-10-08T01:26:39;11.40;;;4.78;;
3141;SDS011;1581;51.568;6.998;2023-10-08T01:29:10;12.98;;;4.30;;
3141;SDS011;1581;51.568;6.998;2023-10-08T01:31:44;10.38;;;4.47;;
3141;SDS011;1581;51.568;6.998;2023-10-08T01:34:13;8.23;;;4.53;;
3141;SDS011;1581;51.568;6.998;2023-10-08T01:36:42;9.25;;;3.47;;
3141;SDS011;1581;51.568;6.998;2023-10-08T01:39:12;6.97;;;4.00;;
3141;SDS011;1581;51.568;6.998;2023-10-08T01:41:42;7.97;;;4.38;;
3141;SDS011;1581;51.568;6.998;2023-10-08T01:44:11;9.57;;;3.78;;
3141;SDS011;1581;51.568;6.998;2023-10-08T01:46:39;7.65;;;3.83;;
3141;SDS011;1581;51.568;6.998;2023-10-08T01:49:07;9.90;;;4.82;;
3141;SDS011;1581;51.568;6.998;2023-10-08T01:51:39;5.32;;;3.53;;
3141;SDS011;1581;51.568;6.998;2023-10-08T01:54:13;11.15;;;3.92;;
3141;SDS011;1581;51.568;6.998;2023-10-08T01:56:43;8.27;;;3.70;;
3141;SDS011;1581;51.568;6.998;2023-10-08T01:59:11;7.20;;;3.90;;
3141;SDS011;1581;51.568;6.998;2023-10-08T02:01:41;9.38;;;4.20;;
3141;SDS011;1581;51.568;6.998;2023-10-08T02:04:10;10.18;;;4.15;;
3141;SDS011;1581;51.568;6.998;2023-10-08T02:06:38;9.50;;;4.15;;
3141;SDS011;1581;51.568;6.998;2023-10-08T02:09:06;6.73;;;4.17;;
3141;SDS011;1581;51.568;6.998;2023-10-08T02:11:46;8.07;;;3.78;;
3141;SDS011;1581;51.568;6.998;2023-10-08T02:14:16;13.07;;;4.38;;
3141;SDS011;1581;51.568;6.998;2023-10-08T02:16:44;8.45;;;4.80;;
3141;SDS011;1581;51.568;6.998;2023-10-08T02:19:14;7.60;;;3.95;;
3141;SDS011;1581;51.568;6.998;2023-10-08T02:21:52;6.60;;;3.95;;
3141;SDS011;1581;51.568;6.998;2023-10-08T02:24:19;7.90;;;4.53;;
3141;SDS011;1581;51.568;6.998;2023-10-08T02:26:51;11.50;;;4.90;;
3141;SDS011;1581;51.568;6.998;2023-10-08T02:29:20;12.90;;;4.72;;
3141;SDS011;1581;51.568;6.998;2023-10-08T02:31:50;11.02;;;4.20;;
3141;SDS011;1581;51.568;6.998;2023-10-08T02:34:19;17.70;;;4.78;;
3141;SDS011;1581;51.568;6.998;2023-10-08T02:36:47;11.88;;;4.53;;
3141;SDS011;1581;51.568;6.998;2023-10-08T02:39:15;9.88;;;4.38;;
3141;SDS011;1581;51.568;6.998;2023-10-08T02:41:47;10.85;;;4.60;;
3141;SDS011;1581;51.568;6.998;2023-10-08T02:44:17;16.00;;;4.88;;
3141;SDS011;1581;51.568;6.998;2023-10-08T02:46:47;13.73;;;5.07;;
3141;SDS011;1581;51.568;6.998;2023-10-08T02:49:17;8.73;;;4.43;;
3141;SDS011;1581;51.568;6.998;2023-10-08T02:51:46;16.40;;;4.72;;
3141;SDS011;1581;51.568;6.998;2023-10-08T02:54:15;7.95;;;4.38;;
3141;SDS011;1581;51.568;6.998;2023-10-08T02:56:44;8.33;;;4.50;;
3141;SDS011;1581;51.568;6.998;2023-10-08T02:59:14;18.02;;;4.50;;
3141;SDS011;1581;51.568;6.998;2023-10-08T03:01:45;15.07;;;4.68;;
3141;SDS011;1581;51.568;6.998;2023-10-08T03:04:14;9.17;;;3.90;;
3141;SDS011;1581;51.568;6.998;2023-10-08T03:06:44;9.95;;;4.68;;
3141;SDS011;1581;51.568;6.998;2023-10-08T03:09:16;13.77;;;5.13;;
3141;SDS011;1581;51.568;6.998;2023-10-08T03:11:48;11.37;;;4.60;;
3141;SDS011;1581;51.568;6.998;2023-10-08T03:14:18;11.05;;;5.30;;
3141;SDS011;1581;51.568;6.998;2023-10-08T03:16:48;13.80;;;5.28;;
3141;SDS011;1581;51.568;6.998;2023-10-08T03:19:17;12.98;;;4.78;;
3141;SDS011;1581;51.568;6.998;2023-10-08T03:21:47;18.80;;;5.13;;
3141;SDS011;1581;51.568;6.998;2023-10-08T03:24:20;12.55;;;4.80;;
3141;SDS011;1581;51.568;6.998;2023-10-08T03:27:03;9.60;;;4.30;;
3141;SDS011;1581;51.568;6.998;2023-10-08T03:29:34;13.80;;;5.03;;
3141;SDS011;1581;51.568;6.998;2023-10-08T03:32:06;14.70;;;4.68;;
3141;SDS011;1581;51.568;6.998;2023-10-08T03:34:39;12.20;;;5.30;;
3141;SDS011;1581;51.568;6.998;2023-10-08T03:37:11;15.13;;;5.10;;
3141;SDS011;1581;51.568;6.998;2023-10-08T03:39:45;11.18;;;4.40;;
3141;SDS011;1581;51.568;6.998;2023-10-08T03:42:32;12.40;;;4.80;;
3141;SDS011;1581;51.568;6.998;2023-10-08T03:45:07;12.77;;;4.68;;
3141;SDS011;1581;51.568;6.998;2023-10-08T03:47:41;18.27;;;4.70;;
3141;SDS011;1581;51.568;6.998;2023-10-08T03:50:11;18.80;;;5.32;;
3141;SDS011;1581;51.568;6.998;2023-10-08T03:52:44;10.00;;;4.30;;
3141;SDS011;1581;51.568;6.998;2023-10-08T03:55:14;18.07;;;5.10;;
3141;SDS011;1581;51.568;6.998;2023-10-08T03:57:51;13.20;;;4.30;;
3141;SDS011;1581;51.568;6.998;2023-10-08T04:00:24;11.63;;;4.03;;
3141;SDS011;1581;51.568;6.998;2023-10-08T04:03:02;14.50;;;4.88;;
3141;SDS011;1581;51.568;6.998;2023-10-08T04:05:33;9.55;;;4.30;;
3141;SDS011;1581;51.568;6.998;2023-10-08T04:08:09;10.85;;;5.30;;
3141;SDS011;1581;51.568;6.998;2023-10-08T04:10:49;16.77;;;4.63;;
3141;SDS011;1581;51.568;6.998;2023-10-08T04:13:47;13.45;;;4.88;;
3141;SDS011;1581;51.568;6.998;2023-10-08T04:16:18;11.50;;;4.20;;
3141;SDS011;1581;51.568;6.998;2023-10-08T04:18:46;10.10;;;4.00;;
3141;SDS011;1581;51.568;6.998;2023-10-08T04:21:17;9.50;;;4.57;;
3141;SDS011;1581;51.568;6.998;2023-10-08T04:23:46;16.40;;;5.87;;
3141;SDS011;1581;51.568;6.998;2023-10-08T04:26:18;15.35;;;4.20;;
3141;SDS011;1581;51.568;6.998;2023-10-08T04:28:49;14.53;;;5.90;;
3141;SDS011;1581;51.568;6.998;2023-10-08T04:31:23;15.37;;;4.60;;
3141;SDS011;1581;51.568;6.998;2023-10-08T04:33:53;15.23;;;5.03;;
3141;SDS011;1581;51.568;6.998;2023-10-08T04:36:25;13.27;;;4.30;;
3141;SDS011;1581;51.568;6.998;2023-10-08T04:38:53;14.43;;;5.30;;
3141;SDS011;1581;51.568;6.998;2023-10-08T04:41:29;12.30;;;5.07;;
3141;SDS011;1581;51.568;6.998;2023-10-08T04:43:58;16.53;;;5.97;;
3141;SDS011;1581;51.568;6.998;2023-10-08T04:46:34;11.43;;;5.23;;
3141;SDS011;1581;51.568;6.998;2023-10-08T04:49:11;12.73;;;4.83;;
3141;SDS011;1581;51.568;6.998;2023-10-08T04:51:53;12.70;;;3.55;;
3141;SDS011;1581;51.568;6.998;2023-10-08T04:54:24;12.02;;;4.85;;
3141;SDS011;1581;51.568;6.998;2023-10-08T04:56:55;12.87;;;5.37;;
3141;SDS011;1581;51.568;6.998;2023-10-08T04:59:27;7.40;;;4.27;;
3141;SDS011;1581;51.568;6.998;2023-10-08T05:02:01;14.00;;;6.10;;
3141;SDS011;1581;51.568;6.998;2023-10-08T05:04:44;12.50;;;4.77;;
3141;SDS011;1581;51.568;6.998;2023-10-08T05:07:43;12.50;;;5.30;;
3141;SDS011;1581;51.568;6.998;2023-10-08T05:10:28;9.07;;;4.93;;
3141;SDS011;1581;51.568;6.998;2023-10-08T05:13:25;15.17;;;4.00;;
3141;SDS011;1581;51.568;6.998;2023-10-08T05:15:58;11.60;;;5.30;;
3141;SDS011;1581;51.568;6.998;2023-10-08T05:18:38;14.53;;;4.87;;
3141;SDS011;1581;51.568;6.998;2023-10-08T05:21:33;13.90;;;4.50;;
3141;SDS011;1581;51.568;6.998;2023-10-08T05:24:17;12.93;;;4.70;;
3141;SDS011;1581;51.568;6.998;2023-10-08T05:26:53;11.67;;;5.10;;
3141;SDS011;1581;51.568;6.998;2023-10-08T05:29:45;16.47;;;4.53;;
3141;SDS011;1581;51.568;6.998;2023-10-08T05:32:36;9.00;;;4.50;;
3141;SDS011;1581;51.568;6.998;2023-10-08T05:35:18;14.43;;;5.10;;
3141;SDS011;1581;51.568;6.998;2023-10-08T05:38:14;17.47;;;4.70;;
3141;SDS011;1581;51.568;6.998;2023-10-08T05:40:48;11.80;;;4.40;;
3141;SDS011;1581;51.568;6.998;2023-10-08T05:43:30;11.00;;;4.10;;
3141;SDS011;1581;51.568;6.998;2023-10-08T05:46:21;10.23;;;4.80;;
3141;SDS011;1581;51.568;6.998;2023-10-08T05:49:06;10.73;;;4.80;;
3141;SDS011;1581;51.568;6.998;2023-10-08T05:51:52;13.83;;;4.40;;
3141;SDS011;1581;51.568;6.998;2023-10-08T05:54:50;22.33;;;7.50;;
3141;SDS011;1581;51.568;6.998;2023-10-08T05:57:35;12.40;;;5.00;;
3141;SDS011;1581;51.568;6.998;2023-10-08T06:00:06;11.60;;;4.40;;
3141;SDS011;1581;51.568;6.998;2023-10-08T06:02:51;14.67;;;5.50;;
3141;SDS011;1581;51.568;6.998;2023-10-08T06:05:36;7.30;;;4.40;;
3141;SDS011;1581;51.568;6.998;2023-10-08T06:08:12;11.47;;;4.27;;
3141;SDS011;1581;51.568;6.998;2023-10-08T06:10:47;9.33;;;5.10;;
3141;SDS011;1581;51.568;6.998;2023-10-08T06:13:26;13.70;;;5.25;;
3141;SDS011;1581;51.568;6.998;2023-10-08T06:16:08;8.80;;;4.93;;
3141;SDS011;1581;51.568;6.998;2023-10-08T06:18:38;11.87;;;5.00;;
3141;SDS011;1581;51.568;6.998;2023-10-08T06:21:06;7.63;;;4.43;;
3141;SDS011;1581;51.568;6.998;2023-10-08T06:23:34;7.77;;;4.03;;
3141;SDS011;1581;51.568;6.998;2023-10-08T06:26:05;12.23;;;5.43;;
3141;SDS011;1581;51.568;6.998;2023-10-08T06:28:40;14.90;;;4.73;;
3141;SDS011;1581;51.568;6.998;2023-10-08T06:31:10;20.90;;;7.80;;
3141;SDS011;1581;51.568;6.998;2023-10-08T06:33:42;28.47;;;5.40;;
3141;SDS011;1581;51.568;6.998;2023-10-08T06:36:10;9.23;;;4.37;;
3141;SDS011;1581;51.568;6.998;2023-10-08T06:38:42;15.50;;;5.53;;
3141;SDS011;1581;51.568;6.998;2023-10-08T06:41:15;12.73;;;4.23;;
3141;SDS011;1581;51.568;6.998;2023-10-08T06:43:44;11.80;;;4.90;;
3141;SDS011;1581;51.568;6.998;2023-10-08T06:46:15;6.03;;;4.00;;
3141;SDS011;1581;51.568;6.998;2023-10-08T06:48:44;11.57;;;4.60;;
3141;SDS011;1581;51.568;6.998;2023-10-08T06:51:14;9.30;;;4.13;;
3141;SDS011;1581;51.568;6.998;2023-10-08T06:53:44;10.53;;;5.10;;
3141;SDS011;1581;51.568;6.998;2023-10-08T06:56:15;11.30;;;4.90;;
3141;SDS011;1581;51.568;6.998;2023-10-08T06:58:45;10.17;;;4.70;;
3141;SDS011;1581;51.568;6.998;2023-10-08T07:01:13;9.90;;;4.53;;
3141;SDS011;1581;51.568;6.998;2023-10-08T07:03:46;13.03;;;5.50;;
3141;SDS011;1581;51.568;6.998;2023-10-08T07:06:16;17.23;;;6.20;;
3141;SDS011;1581;51.568;6.998;2023-10-08T07:08:50;15.30;;;4.83;;
3141;SDS011;1581;51.568;6.998;2023-10-08T07:11:22;13.60;;;5.33;;
3141;SDS011;1581;51.568;6.998;2023-10-08T07:13:52;16.90;;;5.27;;
3141;SDS011;1581;51.568;6.998;2023-10-08T07:16:20;15.63;;;6.40;;
3141;SDS011;1581;51.568;6.998;2023-10-08T07:18:48;17.87;;;6.50;;
3141;SDS011;1581;51.568;6.998;2023-10-08T07:21:17;13.13;;;5.40;;
3141;SDS011;1581;51.568;6.998;2023-10-08T07:23:49;8.10;;;4.67;;
3141;SDS011;1581;51.568;6.998;2023-10-08T07:26:24;14.43;;;5.83;;
3141;SDS011;1581;51.568;6.998;2023-10-08T07:29:01;13.77;;;6.27;;
3141;SDS011;1581;51.568;6.998;2023-10-08T07:31:33;13.80;;;6.67;;
3141;SDS011;1581;51.568;6.998;2023-10-08T07:34:02;9.07;;;4.30;;
3141;SDS011;1581;51.568;6.998;2023-10-08T07:36:43;11.87;;;3.67;;
3141;SDS011;1581;51.568;6.998;2023-10-08T07:39:12;4.13;;;3.17;;
3141;SDS011;1581;51.568;6.998;2023-10-08T07:41:52;7.13;;;3.20;;
3141;SDS011;1581;51.568;6.998;2023-10-08T07:44:21;4.93;;;3.70;;
3141;SDS011;1581;51.568;6.998;2023-10-08T07:46:49;3.77;;;3.43;;
3141;SDS011;1581;51.568;6.998;2023-10-08T07:49:19;5.40;;;3.77;;
3141;SDS011;1581;51.568;6.998;2023-10-08T07:51:48;4.37;;;3.43;;
3141;SDS011;1581;51.568;6.998;2023-10-08T07:54:17;5.63;;;3.20;;
3141;SDS011;1581;51.568;6.998;2023-10-08T07:56:48;3.27;;;2.90;;
3141;SDS011;1581;51.568;6.998;2023-10-08T07:59:24;5.23;;;3.73;;
3141;SDS011;1581;51.568;6.998;2023-10-08T08:01:52;10.77;;;3.97;;
3141;SDS011;1581;51.568;6.998;2023-10-08T08:04:20;5.03;;;3.00;;
3141;SDS011;1581;51.568;6.998;2023-10-08T08:06:48;8.70;;;3.53;;
3141;SDS011;1581;51.568;6.998;2023-10-08T08:09:16;8.13;;;3.97;;
3141;SDS011;1581;51.568;6.998;2023-10-08T08:11:45;7.10;;;3.43;;
3141;SDS011;1581;51.568;6.998;2023-10-08T08:14:15;3.40;;;2.93;;
3141;SDS011;1581;51.568;6.998;2023-10-08T08:16:43;6.97;;;3.40;;
3141;SDS011;1581;51.568;6.998;2023-10-08T08:19:14;7.53;;;3.60;;
3141;SDS011;1581;51.568;6.998;2023-10-08T08:21:42;7.17;;;2.50;;
3141;SDS011;1581;51.568;6.998;2023-10-08T08:24:12;2.33;;;1.97;;
3141;SDS011;1581;51.568;6.998;2023-10-08T08:26:53;1.80;;;1.60;;
3141;SDS011;1581;51.568;6.998;2023-10-08T08:29:35;2.60;;;1.17;;
3141;SDS011;1581;51.568;6.998;2023-10-08T08:32:10;1.97;;;1.07;;
3141;SDS011;1581;51.568;6.998;2023-10-08T08:34:40;3.27;;;0.90;;
3141;SDS011;1581;51.568;6.998;2023-10-08T08:37:09;1.17;;;1.07;;
3141;SDS011;1581;51.568;6.998;2023-10-08T08:39:37;1.53;;;0.90;;
3141;SDS011;1581;51.568;6.998;2023-10-08T08:42:07;1.60;;;1.00;;
3141;SDS011;1581;51.568;6.998;2023-10-08T08:44:37;0.80;;;0.80;;
3141;SDS011;1581;51.568;6.998;2023-10-08T08:47:11;4.93;;;1.20;;
3141;SDS011;1581;51.568;6.998;2023-10-08T08:49:43;2.00;;;1.40;;
3141;SDS011;1581;51.568;6.998;2023-10-08T08:52:11;2.27;;;1.50;;
3141;SDS011;1581;51.568;6.998;2023-10-08T08:54:39;2.90;;;1.60;;
3141;SDS011;1581;51.568;6.998;2023-10-08T08:57:08;1.43;;;1.23;;
3141;SDS011;1581;51.568;6.998;2023-10-08T08:59:41;2.00;;;1.43;;
3141;SDS011;1581;51.568;6.998;2023-10-08T09:02:19;1.10;;;1.00;;
3141;SDS011;1581;51.568;6.998;2023-10-08T09:04:48;4.23;;;1.20;;
3141;SDS011;1581;51.568;6.998;2023-10-08T09:07:19;5.23;;;1.50;;
3141;SDS011;1581;51.568;6.998;2023-10-08T09:09:47;1.63;;;1.30;;
3141;SDS011;1581;51.568;6.998;2023-10-08T09:12:18;1.60;;;1.50;;
3141;SDS011;1581;51.568;6.998;2023-10-08T09:14:48;3.00;;;1.73;;
3141;SDS011;1581;51.568;6.998;2023-10-08T09:17:16;1.80;;;1.70;;
3141;SDS011;1581;51.568;6.998;2023-10-08T09:19:45;1.80;;;1.30;;
3141;SDS011;1581;51.568;6.998;2023-10-08T09:22:12;2.43;;;1.00;;
3141;SDS011;1581;51.568;6.998;2023-10-08T09:24:44;1.07;;;1.07;;
3141;SDS011;1581;51.568;6.998;2023-10-08T09:27:14;4.70;;;1.00;;
3141;SDS011;1581;51.568;6.998;2023-10-08T09:29:45;2.00;;;0.90;;
3141;SDS011;1581;51.568;6.998;2023-10-08T09:32:15;1.83;;;0.90;;
3141;SDS011;1581;51.568;6.998;2023-10-08T09:34:48;2.30;;;0.80;;
3141;SDS011;1581;51.568;6.998;2023-10-08T09:37:16;0.73;;;0.73;;
3141;SDS011;1581;51.568;6.998;2023-10-08T09:39:47;1.10;;;1.00;;
3141;SDS011;1581;51.568;6.998;2023-10-08T09:42:17;1.63;;;1.00;;
3141;SDS011;1581;51.568;6.998;2023-10-08T09:44:49;0.87;;;0.80;;
3141;SDS011;1581;51.568;6.998;2023-10-08T09:47:17;2.50;;;0.77;;
3141;SDS011;1581;51.568;6.998;2023-10-08T09:49:50;1.53;;;0.90;;
3141;SDS011;1581;51.568;6.998;2023-10-08T09:52:24;1.07;;;0.60;;
3141;SDS011;1581;51.568;6.998;2023-10-08T09:55:00;1.10;;;1.00;;
3141;SDS011;1581;51.568;6.998;2023-10-08T09:57:35;2.13;;;1.50;;
3141;SDS011;1581;51.568;6.998;2023-10-08T10:00:05;1.77;;;1.33;;
3141;SDS011;1581;51.568;6.998;2023-10-08T10:02:39;1.57;;;1.10;;
3141;SDS011;1581;51.568;6.998;2023-10-08T10:05:10;1.70;;;1.60;;
3141;SDS011;1581;51.568;6.998;2023-10-08T10:07:38;4.43;;;1.65;;
3141;SDS011;1581;51.568;6.998;2023-10-08T10:12:58;3.87;;;2.00;;
3141;SDS011;1581;51.568;6.998;2023-10-08T10:15:28;7.50;;;1.60;;
3141;SDS011;1581;51.568;6.998;2023-10-08T10:18:07;4.50;;;1.70;;
3141;SDS011;1581;51.568;6.998;2023-10-08T10:20:39;4.63;;;2.53;;
3141;SDS011;1581;51.568;6.998;2023-10-08T10:26:05;3.97;;;2.63;;
3141;SDS011;1581;51.568;6.998;2023-10-08T10:31:53;4.35;;;3.95;;
3141;SDS011;1581;51.568;6.998;2023-10-08T10:34:23;9.83;;;4.90;;
3141;SDS011;1581;51.568;6.998;2023-10-08T10:36:53;10.07;;;4.97;;
3141;SDS011;1581;51.568;6.998;2023-10-08T10:39:23;9.50;;;6.20;;
3141;SDS011;1581;51.568;6.998;2023-10-08T10:41:53;7.87;;;6.23;;
3141;SDS011;1581;51.568;6.998;2023-10-08T10:44:26;9.48;;;5.88;;
3141;SDS011;1581;51.568;6.998;2023-10-08T10:46:57;5.90;;;5.30;;
3141;SDS011;1581;51.568;6.998;2023-10-08T10:49:52;11.70;;;6.87;;
3141;SDS011;1581;51.568;6.998;2023-10-08T10:52:41;10.75;;;5.40;;
3141;SDS011;1581;51.568;6.998;2023-10-08T10:55:17;6.72;;;5.93;;
3141;SDS011;1581;51.568;6.998;2023-10-08T10:57:49;7.10;;;4.90;;
3141;SDS011;1581;51.568;6.998;2023-10-08T11:00:22;6.00;;;5.40;;
3141;SDS011;1581;51.568;6.998;2023-10-08T11:03:09;5.47;;;4.05;;
3141;SDS011;1581;51.568;6.998;2023-10-08T11:05:44;5.13;;;4.00;;
3141;SDS011;1581;51.568;6.998;2023-10-08T11:08:16;2.50;;;2.30;;
3141;SDS011;1581;51.568;6.998;2023-10-08T11:10:46;2.33;;;1.90;;
3141;SDS011;1581;51.568;6.998;2023-10-08T11:13:17;2.08;;;1.73;;
3141;SDS011;1581;51.568;6.998;2023-10-08T11:15:46;2.33;;;1.40;;
3141;SDS011;1581;51.568;6.998;2023-10-08T11:18:19;2.50;;;1.25;;
3141;SDS011;1581;51.568;6.998;2023-10-08T11:20:49;2.63;;;1.65;;
3141;SDS011;1581;51.568;6.998;2023-10-08T11:23:31;1.60;;;1.48;;
3141;SDS011;1581;51.568;6.998;2023-10-08T11:26:02;4.85;;;1.50;;
3141;SDS011;1581;51.568;6.998;2023-10-08T11:28:31;3.05;;;1.35;;
3141;SDS011;1581;51.568;6.998;2023-10-08T11:31:01;1.80;;;1.70;;
3141;SDS011;1581;51.568;6.998;2023-10-08T11:33:36;3.55;;;1.30;;
3141;SDS011;1581;51.568;6.998;2023-10-08T11:36:06;2.20;;;0.90;;
3141;SDS011;1581;51.568;6.998;2023-10-08T11:38:43;1.73;;;0.90;;
3141;SDS011;1581;51.568;6.998;2023-10-08T11:41:15;2.38;;;1.00;;
3141;SDS011;1581;51.568;6.998;2023-10-08T11:43:48;4.10;;;1.20;;
3141;SDS011;1581;51.568;6.998;2023-10-08T11:46:20;1.13;;;0.70;;
3141;SDS011;1581;51.568;6.998;2023-10-08T11:48:52;1.15;;;0.90;;
3141;SDS011;1581;51.568;6.998;2023-10-08T11:51:23;0.63;;;0.63;;
3141;SDS011;1581;51.568;6.998;2023-10-08T11:53:52;5.00;;;1.00;;
3141;SDS011;1581;51.568;6.998;2023-10-08T11:56:21;1.58;;;0.60;;
3141;SDS011;1581;51.568;6.998;2023-10-08T11:58:49;2.88;;;0.70;;
3141;SDS011;1581;51.568;6.998;2023-10-08T12:01:17;1.48;;;1.00;;
3141;SDS011;1581;51.568;6.998;2023-10-08T12:03:45;0.85;;;0.60;;
3141;SDS011;1581;51.568;6.998;2023-10-08T12:06:16;1.92;;;1.08;;
3141;SDS011;1581;51.568;6.998;2023-10-08T12:08:44;1.77;;;0.95;;
3141;SDS011;1581;51.568;6.998;2023-10-08T12:11:13;5.35;;;0.93;;
3141;SDS011;1581;51.568;6.998;2023-10-08T12:13:41;3.72;;;1.17;;
3141;SDS011;1581;51.568;6.998;2023-10-08T12:16:13;1.10;;;0.77;;
3141;SDS011;1581;51.568;6.998;2023-10-08T12:18:46;3.42;;;0.88;;
3141;SDS011;1581;51.568;6.998;2023-10-08T12:21:20;2.58;;;0.88;;
3141;SDS011;1581;51.568;6.998;2023-10-08T12:23:49;0.77;;;0.77;;
3141;SDS011;1581;51.568;6.998;2023-10-08T12:26:20;0.88;;;0.63;;
3141;SDS011;1581;51.568;6.998;2023-10-08T12:28:47;2.78;;;0.75;;
3141;SDS011;1581;51.568;6.998;2023-10-08T12:31:16;3.45;;;0.70;;
3141;SDS011;1581;51.568;6.998;2023-10-08T12:33:47;1.33;;;0.85;;
3141;SDS011;1581;51.568;6.998;2023-10-08T12:36:20;5.65;;;1.00;;
3141;SDS011;1581;51.568;6.998;2023-10-08T12:38:49;2.30;;;1.35;;
3141;SDS011;1581;51.568;6.998;2023-10-08T12:41:22;3.53;;;0.90;;
3141;SDS011;1581;51.568;6.998;2023-10-08T12:43:52;1.60;;;0.90;;
3141;SDS011;1581;51.568;6.998;2023-10-08T12:46:20;1.42;;;1.05;;
3141;SDS011;1581;51.568;6.998;2023-10-08T12:48:50;1.20;;;0.60;;
3141;SDS011;1581;51.568;6.998;2023-10-08T12:51:21;5.45;;;0.73;;
3141;SDS011;1581;51.568;6.998;2023-10-08T12:53:50;2.35;;;0.82;;
3141;SDS011;1581;51.568;6.998;2023-10-08T12:56:24;3.28;;;1.00;;
3141;SDS011;1581;51.568;6.998;2023-10-08T12:59:00;2.35;;;0.88;;
3141;SDS011;1581;51.568;6.998;2023-10-08T13:01:31;3.80;;;1.27;;
3141;SDS011;1581;51.568;6.998;2023-10-08T13:04:01;3.63;;;1.15;;
3141;SDS011;1581;51.568;6.998;2023-10-08T13:06:34;3.72;;;1.20;;
3141;SDS011;1581;51.568;6.998;2023-10-08T13:09:03;2.65;;;0.90;;
3141;SDS011;1581;51.568;6.998;2023-10-08T13:11:37;1.60;;;0.80;;
3141;SDS011;1581;51.568;6.998;2023-10-08T13:14:05;2.47;;;1.30;;
3141;SDS011;1581;51.568;6.998;2023-10-08T13:16:33;2.38;;;1.00;;
3141;SDS011;1581;51.568;6.998;2023-10-08T13:19:02;2.80;;;1.10;;
3141;SDS011;1581;51.568;6.998;2023-10-08T13:21:34;3.15;;;1.33;;
3141;SDS011;1581;51.568;6.998;2023-10-08T13:24:02;1.75;;;1.10;;
3141;SDS011;1581;51.568;6.998;2023-10-08T13:26:34;1.50;;;0.88;;
3141;SDS011;1581;51.568;6.998;2023-10-08T13:29:03;3.55;;;1.02;;
3141;SDS011;1581;51.568;6.998;2023-10-08T13:31:34;1.02;;;1.00;;
3141;SDS011;1581;51.568;6.998;2023-10-08T13:34:01;2.67;;;0.75;;
3141;SDS011;1581;51.568;6.998;2023-10-08T13:36:35;5.40;;;1.20;;
3141;SDS011;1581;51.568;6.998;2023-10-08T13:39:04;3.25;;;1.10;;
3141;SDS011;1581;51.568;6.998;2023-10-08T13:41:34;2.00;;;0.93;;
3141;SDS011;1581;51.568;6.998;2023-10-08T13:44:03;2.00;;;1.42;;
3141;SDS011;1581;51.568;6.998;2023-10-08T13:46:31;2.15;;;1.17;;
3141;SDS011;1581;51.568;6.998;2023-10-08T13:49:01;1.08;;;0.63;;
3141;SDS011;1581;51.568;6.998;2023-10-08T13:51:31;3.35;;;1.08;;
3141;SDS011;1581;51.568;6.998;2023-10-08T13:54:04;3.47;;;0.90;;
3141;SDS011;1581;51.568;6.998;2023-10-08T13:56:34;3.35;;;1.20;;
3141;SDS011;1581;51.568;6.998;2023-10-08T13:59:03;3.00;;;0.88;;
3141;SDS011;1581;51.568;6.998;2023-10-08T14:01:37;1.45;;;1.05;;
3141;SDS011;1581;51.568;6.998;2023-10-08T14:04:08;4.25;;;1.30;;
3141;SDS011;1581;51.568;6.998;2023-10-08T14:06:38;1.25;;;1.05;;
3141;SDS011;1581;51.568;6.998;2023-10-08T14:09:13;2.85;;;1.30;;
3141;SDS011;1581;51.568;6.998;2023-10-08T14:11:46;2.88;;;2.00;;
3141;SDS011;1581;51.568;6.998;2023-10-08T14:14:17;3.63;;;1.67;;
3141;SDS011;1581;51.568;6.998;2023-10-08T14:16:49;5.63;;;1.30;;
3141;SDS011;1581;51.568;6.998;2023-10-08T14:19:19;7.10;;;1.65;;
3141;SDS011;1581;51.568;6.998;2023-10-08T14:21:54;2.88;;;1.38;;
3141;SDS011;1581;51.568;6.998;2023-10-08T14:24:28;6.38;;;2.55;;
3141;SDS011;1581;51.568;6.998;2023-10-08T14:27:00;3.47;;;1.63;;
3141;SDS011;1581;51.568;6.998;2023-10-08T14:29:28;2.67;;;1.50;;
3141;SDS011;1581;51.568;6.998;2023-10-08T14:31:59;2.13;;;1.23;;
3141;SDS011;1581;51.568;6.998;2023-10-08T14:34:26;2.40;;;1.23;;
3141;SDS011;1581;51.568;6.998;2023-10-08T14:37:12;3.58;;;1.13;;
3141;SDS011;1581;51.568;6.998;2023-10-08T14:39:57;5.05;;;1.08;;
3141;SDS011;1581;51.568;6.998;2023-10-08T14:42:42;3.10;;;1.13;;
3141;SDS011;1581;51.568;6.998;2023-10-08T14:45:24;7.60;;;2.20;;
3141;SDS011;1581;51.568;6.998;2023-10-08T14:47:56;3.17;;;1.65;;
3141;SDS011;1581;51.568;6.998;2023-10-08T14:50:25;5.25;;;2.00;;
3141;SDS011;1581;51.568;6.998;2023-10-08T14:52:58;5.40;;;2.20;;
3141;SDS011;1581;51.568;6.998;2023-10-08T14:55:26;3.47;;;1.55;;
3141;SDS011;1581;51.568;6.998;2023-10-08T14:57:55;4.00;;;1.48;;
3141;SDS011;1581;51.568;6.998;2023-10-08T15:00:23;3.08;;;1.10;;
3141;SDS011;1581;51.568;6.998;2023-10-08T15:02:51;2.10;;;1.25;;
3141;SDS011;1581;51.568;6.998;2023-10-08T15:05:20;4.07;;;1.85;;
3141;SDS011;1581;51.568;6.998;2023-10-08T15:07:48;1.85;;;1.40;;
3141;SDS011;1581;51.568;6.998;2023-10-08T15:10:18;3.00;;;1.50;;
3141;SDS011;1581;51.568;6.998;2023-10-08T15:12:46;4.75;;;2.35;;
3141;SDS011;1581;51.568;6.998;2023-10-08T15:15:15;4.32;;;1.80;;
3141;SDS011;1581;51.568;6.998;2023-10-08T15:17:43;4.00;;;2.13;;
3141;SDS011;1581;51.568;6.998;2023-10-08T15:20:12;5.43;;;2.08;;
3141;SDS011;1581;51.568;6.998;2023-10-08T15:22:44;1.88;;;1.70;;
3141;SDS011;1581;51.568;6.998;2023-10-08T15:25:16;3.63;;;1.80;;
3141;SDS011;1581;51.568;6.998;2023-10-08T15:27:45;4.35;;;2.00;;
3141;SDS011;1581;51.568;6.998;2023-10-08T15:30:15;3.67;;;1.65;;
3141;SDS011;1581;51.568;6.998;2023-10-08T15:32:46;2.57;;;1.73;;
3141;SDS011;1581;51.568;6.998;2023-10-08T15:35:15;5.50;;;2.40;;
3141;SDS011;1581;51.568;6.998;2023-10-08T15:37:45;5.17;;;2.63;;
3141;SDS011;1581;51.568;6.998;2023-10-08T15:40:18;2.50;;;1.67;;
3141;SDS011;1581;51.568;6.998;2023-10-08T15:42:47;3.73;;;2.17;;
3141;SDS011;1581;51.568;6.998;2023-10-08T15:45:16;5.07;;;2.00;;
3141;SDS011;1581;51.568;6.998;2023-10-08T15:47:45;5.17;;;2.20;;
3141;SDS011;1581;51.568;6.998;2023-10-08T15:50:12;4.30;;;1.87;;